Time;durP1;ratioP1;P1;durP2;ratioP2;P2;SDS_P1;SDS_P2;PMS_P1;PMS_P2;Temp;Humidity;BMP_temperature;BMP_pressure;BME280_temperature;BME280_humidity;BME280_pressure;Samples;Min_cycle;Max_cycle;Signal;HPM_P1;HPM_P2
2022/12/11 00:00:06;;;;;;;47.93;19.70;;;;;;;;;;4957667;28;20245;-66
2022/12/11 00:02:32;;;;;;;49.60;19.63;;;;;;;;;;4958624;28;20253;-66
2022/12/11 00:04:57;;;;;;;67.93;20.63;;;;;;;;;;4961976;28;20320;-66
2022/12/11 00:07:22;;;;;;;65.60;21.83;;;;;;;;;;4966097;28;20755;-66
2022/12/11 00:09:48;;;;;;;55.40;21.03;;;;;;;;;;4966184;28;20221;-66
2022/12/11 00:12:13;;;;;;;53.47;19.87;;;;;;;;;;4983897;28;20231;-66
2022/12/11 00:14:38;;;;;;;53.30;19.40;;;;;;;;;;4985181;28;20236;-66
2022/12/11 00:17:04;;;;;;;54.10;19.03;;;;;;;;;;4967253;28;20759;-66
2022/12/11 00:19:29;;;;;;;66.00;21.90;;;;;;;;;;4962704;28;20225;-66
2022/12/11 00:21:54;;;;;;;71.70;20.97;;;;;;;;;;4954553;28;20693;-66
2022/12/11 00:24:20;;;;;;;67.33;20.50;;;;;;;;;;4957134;28;20271;-66
2022/12/11 00:26:45;;;;;;;49.83;18.37;;;;;;;;;;4959758;28;20214;-66
2022/12/11 00:29:13;;;;;;;67.27;20.83;;;;;;;;;;4965373;28;20249;-66
2022/12/11 00:31:39;;;;;;;52.33;19.17;;;;;;;;;;4984868;28;20213;-66
2022/12/11 00:34:04;;;;;;;58.90;19.80;;;;;;;;;;4974211;28;20210;-66
2022/12/11 00:36:29;;;;;;;60.70;19.57;;;;;;;;;;4965788;28;20222;-66
2022/12/11 00:38:55;;;;;;;61.37;20.23;;;;;;;;;;4965392;28;20237;-66
2022/12/11 00:41:20;;;;;;;62.67;20.57;;;;;;;;;;4963743;28;20618;-66
2022/12/11 00:43:45;;;;;;;54.60;20.23;;;;;;;;;;4958145;28;20321;-66
2022/12/11 00:46:11;;;;;;;56.67;19.37;;;;;;;;;;4956593;28;20214;-66
2022/12/11 00:48:36;;;;;;;61.10;20.83;;;;;;;;;;4957598;28;20663;-66
2022/12/11 00:51:01;;;;;;;62.53;21.17;;;;;;;;;;4964862;28;20222;-66
2022/12/11 00:53:27;;;;;;;68.03;21.80;;;;;;;;;;4983076;28;20747;-66
2022/12/11 00:55:52;;;;;;;63.40;20.30;;;;;;;;;;4981462;28;20620;-66
2022/12/11 00:58:17;;;;;;;63.30;20.93;;;;;;;;;;4964538;28;20612;-65
2022/12/11 01:00:43;;;;;;;57.17;21.23;;;;;;;;;;4964433;28;20296;-65
2022/12/11 01:03:08;;;;;;;55.37;19.97;;;;;;;;;;4964632;28;20217;-65
2022/12/11 01:05:33;;;;;;;47.13;17.27;;;;;;;;;;4978423;28;20228;-66
2022/12/11 01:07:59;;;;;;;60.67;20.67;;;;;;;;;;4975731;28;20245;-66
2022/12/11 01:10:24;;;;;;;65.13;19.80;;;;;;;;;;4969796;28;20222;-66
2022/12/11 01:12:51;;;;;;;61.27;20.50;;;;;;;;;;4962373;28;20225;-65
2022/12/11 01:15:16;;;;;;;57.63;20.67;;;;;;;;;;4978941;28;20214;-65
2022/12/11 01:17:42;;;;;;;52.90;20.03;;;;;;;;;;4964870;28;20229;-65
2022/12/11 01:20:07;;;;;;;54.03;19.60;;;;;;;;;;4964276;28;20224;-65
2022/12/11 01:22:32;;;;;;;52.47;19.43;;;;;;;;;;4963987;28;20220;-65
2022/12/11 01:24:58;;;;;;;57.57;20.50;;;;;;;;;;4964919;28;20224;-65
2022/12/11 01:27:23;;;;;;;54.87;19.83;;;;;;;;;;4961109;28;20222;-66
2022/12/11 01:29:48;;;;;;;66.87;21.40;;;;;;;;;;4968606;28;20635;-65
2022/12/11 01:32:14;;;;;;;57.53;19.73;;;;;;;;;;4991447;28;20219;-65
2022/12/11 01:34:39;;;;;;;59.67;20.60;;;;;;;;;;5003288;28;20212;-65
2022/12/11 01:37:04;;;;;;;56.13;20.10;;;;;;;;;;5010723;28;20232;-65
2022/12/11 01:39:30;;;;;;;55.53;19.57;;;;;;;;;;5013161;28;20246;-65
2022/12/11 01:41:56;;;;;;;57.70;20.17;;;;;;;;;;5013004;28;20703;-65
2022/12/11 01:44:21;;;;;;;52.73;19.77;;;;;;;;;;5011978;28;20559;-65
2022/12/11 01:46:46;;;;;;;65.57;21.83;;;;;;;;;;5012654;28;20213;-65
2022/12/11 01:49:12;;;;;;;55.70;21.30;;;;;;;;;;5012623;28;20234;-64
2022/12/11 01:51:39;;;;;;;58.93;21.70;;;;;;;;;;5010338;28;20263;-65
2022/12/11 01:54:06;;;;;;;59.93;21.20;;;;;;;;;;5011342;28;20278;-65
2022/12/11 01:56:31;;;;;;;59.23;21.83;;;;;;;;;;5003062;28;20216;-65
2022/12/11 01:58:59;;;;;;;59.27;21.70;;;;;;;;;;4992607;28;20218;-65
2022/12/11 02:01:27;;;;;;;57.07;20.77;;;;;;;;;;4992624;28;20213;-65
2022/12/11 02:03:52;;;;;;;54.03;19.67;;;;;;;;;;4990848;28;21156;-65
2022/12/11 02:06:28;;;;;;;58.63;21.43;;;;;;;;;;4992379;28;20303;-65
2022/12/11 02:08:53;;;;;;;57.47;20.43;;;;;;;;;;4991722;28;20213;-65
2022/12/11 02:11:19;;;;;;;48.97;19.37;;;;;;;;;;4990653;28;20300;-65
2022/12/11 02:13:45;;;;;;;56.90;19.37;;;;;;;;;;4991855;28;20209;-65
2022/12/11 02:16:15;;;;;;;60.53;20.07;;;;;;;;;;5003371;28;20307;-65
2022/12/11 02:18:41;;;;;;;57.23;20.50;;;;;;;;;;5010480;28;20220;-65
2022/12/11 02:21:09;;;;;;;58.70;19.90;;;;;;;;;;5011577;28;20226;-65
2022/12/11 02:23:50;;;;;;;56.50;20.20;;;;;;;;;;5011328;28;20582;-65
2022/12/11 02:26:34;;;;;;;56.57;20.13;;;;;;;;;;5010132;28;20216;-65
2022/12/11 02:29:01;;;;;;;55.37;18.60;;;;;;;;;;5010308;28;20204;-65
2022/12/11 02:31:34;;;;;;;53.53;19.13;;;;;;;;;;4998000;28;20712;-65
2022/12/11 02:34:08;;;;;;;49.60;18.87;;;;;;;;;;4998999;28;20224;-65
2022/12/11 02:36:34;;;;;;;54.00;19.07;;;;;;;;;;4994567;28;20228;-65
2022/12/11 02:39:00;;;;;;;54.70;18.87;;;;;;;;;;4990737;28;20232;-65
2022/12/11 02:41:25;;;;;;;54.13;18.90;;;;;;;;;;4992144;28;20253;-65
2022/12/11 02:43:50;;;;;;;61.57;20.67;;;;;;;;;;4991593;28;20213;-65
2022/12/11 02:46:16;;;;;;;57.50;19.27;;;;;;;;;;4991597;28;20229;-65
2022/12/11 02:48:42;;;;;;;61.83;19.53;;;;;;;;;;4993521;28;20289;-65
2022/12/11 02:51:07;;;;;;;60.63;19.83;;;;;;;;;;4996502;28;20216;-65
2022/12/11 02:53:34;;;;;;;51.03;18.80;;;;;;;;;;4995665;28;20241;-65
2022/12/11 02:56:01;;;;;;;54.30;18.93;;;;;;;;;;4999679;28;20304;-65
2022/12/11 02:58:28;;;;;;;57.70;20.00;;;;;;;;;;5014604;28;20232;-65
2022/12/11 03:00:53;;;;;;;54.37;19.43;;;;;;;;;;4997247;28;20209;-65
2022/12/11 03:03:18;;;;;;;61.47;20.00;;;;;;;;;;4995478;28;20221;-67
2022/12/11 03:05:45;;;;;;;59.80;19.87;;;;;;;;;;4979217;28;20579;-66
2022/12/11 03:08:10;;;;;;;54.87;18.87;;;;;;;;;;4976371;28;20831;-67
2022/12/11 03:10:35;;;;;;;61.30;20.17;;;;;;;;;;4984280;28;20249;-66
2022/12/11 03:13:01;;;;;;;60.10;19.30;;;;;;;;;;4986176;28;20226;-66
2022/12/11 03:15:45;;;;;;;62.27;20.13;;;;;;;;;;4986617;28;20582;-66
2022/12/11 03:18:12;;;;;;;56.60;19.83;;;;;;;;;;5005527;28;20228;-66
2022/12/11 03:20:37;;;;;;;56.03;19.20;;;;;;;;;;5005785;28;20234;-66
2022/12/11 03:23:03;;;;;;;49.10;18.90;;;;;;;;;;4985360;28;20696;-66
2022/12/11 03:25:32;;;;;;;60.00;19.33;;;;;;;;;;4982633;28;20209;-67
2022/12/11 03:27:58;;;;;;;51.23;18.80;;;;;;;;;;4969931;28;20222;-67
2022/12/11 03:30:24;;;;;;;48.20;18.93;;;;;;;;;;4963767;28;20213;-67
2022/12/11 03:32:53;;;;;;;53.77;19.37;;;;;;;;;;4976865;28;20217;-67
2022/12/11 03:35:22;;;;;;;54.60;19.03;;;;;;;;;;4984612;28;20213;-67
2022/12/11 03:37:47;;;;;;;55.17;18.77;;;;;;;;;;5005285;28;20220;-66
2022/12/11 03:40:14;;;;;;;48.67;19.23;;;;;;;;;;4982982;28;20280;-66
2022/12/11 03:42:40;;;;;;;50.73;19.23;;;;;;;;;;4984645;28;20205;-67
2022/12/11 03:45:05;;;;;;;57.73;20.17;;;;;;;;;;4984316;28;20217;-67
2022/12/11 03:47:30;;;;;;;50.97;19.13;;;;;;;;;;4971802;28;20253;-67
2022/12/11 03:49:56;;;;;;;58.40;20.87;;;;;;;;;;4975375;28;20225;-67
2022/12/11 03:52:21;;;;;;;53.30;19.67;;;;;;;;;;4977402;28;20602;-66
2022/12/11 03:54:46;;;;;;;60.23;20.03;;;;;;;;;;4979671;28;20220;-67
2022/12/11 03:57:12;;;;;;;59.87;20.23;;;;;;;;;;4980096;28;20240;-67
2022/12/11 03:59:38;;;;;;;54.53;19.63;;;;;;;;;;4966185;28;20249;-67
2022/12/11 04:02:09;;;;;;;59.67;21.20;;;;;;;;;;4965960;28;20300;-67
2022/12/11 04:04:36;;;;;;;52.13;19.90;;;;;;;;;;4984065;28;20343;-67
2022/12/11 04:07:01;;;;;;;50.87;20.03;;;;;;;;;;4983984;28;20212;-67
2022/12/11 04:09:26;;;;;;;64.70;20.87;;;;;;;;;;4985258;28;20608;-67
2022/12/11 04:11:51;;;;;;;69.77;21.57;;;;;;;;;;4976694;28;20220;-67
2022/12/11 04:17:00;;;;;;;57.40;20.53;;;;;;;;;;4960754;28;20268;-67
2022/12/11 04:24:54;;;;;;;59.27;21.80;;;;;;;;;;4984610;28;20243;-67
2022/12/11 04:30:04;;;;;;;56.37;21.87;;;;;;;;;;4983246;28;20311;-67
2022/12/11 04:32:30;;;;;;;56.70;20.17;;;;;;;;;;4963680;28;20214;-67
2022/12/11 04:34:55;;;;;;;55.57;20.43;;;;;;;;;;4958328;28;20217;-67
2022/12/11 04:37:20;;;;;;;55.60;20.80;;;;;;;;;;4957079;28;20749;-67
2022/12/11 04:39:46;;;;;;;56.97;20.80;;;;;;;;;;4975283;28;20213;-67
2022/12/11 04:42:11;;;;;;;53.57;21.03;;;;;;;;;;4968045;28;20225;-67
2022/12/11 04:44:36;;;;;;;57.60;21.90;;;;;;;;;;4965623;28;20268;-67
2022/12/11 04:47:02;;;;;;;55.97;20.90;;;;;;;;;;4964540;28;20249;-67
2022/12/11 04:49:27;;;;;;;55.40;21.40;;;;;;;;;;4965509;28;20218;-67
2022/12/11 04:51:52;;;;;;;76.57;22.13;;;;;;;;;;4965092;28;20225;-67
2022/12/11 04:54:18;;;;;;;55.57;20.60;;;;;;;;;;4964435;28;20280;-67
2022/12/11 04:56:43;;;;;;;58.27;21.67;;;;;;;;;;4966544;28;20839;-67
2022/12/11 04:59:08;;;;;;;54.07;21.20;;;;;;;;;;4981037;28;20229;-66
2022/12/11 05:01:34;;;;;;;60.13;22.33;;;;;;;;;;5000787;28;20547;-67
2022/12/11 05:03:59;;;;;;;53.97;21.00;;;;;;;;;;4993959;28;20264;-67
2022/12/11 05:06:24;;;;;;;57.53;21.03;;;;;;;;;;4993448;28;20221;-67
2022/12/11 05:08:49;;;;;;;55.83;21.13;;;;;;;;;;4993549;28;20221;-67
2022/12/11 05:11:15;;;;;;;56.73;21.90;;;;;;;;;;4993673;28;20239;-67
2022/12/11 05:13:40;;;;;;;56.90;22.13;;;;;;;;;;4993232;28;20205;-67
2022/12/11 05:16:06;;;;;;;63.20;22.93;;;;;;;;;;4993555;28;20248;-67
2022/12/11 05:18:32;;;;;;;54.43;22.43;;;;;;;;;;4994010;28;20221;-67
2022/12/11 05:20:58;;;;;;;55.33;22.17;;;;;;;;;;4992870;28;20220;-67
2022/12/11 05:23:23;;;;;;;55.93;21.47;;;;;;;;;;4993325;28;20660;-67
2022/12/11 05:25:55;;;;;;;57.37;22.20;;;;;;;;;;4993935;28;20318;-67
2022/12/11 05:28:21;;;;;;;55.83;21.73;;;;;;;;;;4992824;28;20776;-67
2022/12/11 05:30:46;;;;;;;56.80;22.07;;;;;;;;;;4993777;28;20280;-67
2022/12/11 05:33:12;;;;;;;54.43;22.03;;;;;;;;;;4993329;28;20684;-67
2022/12/11 05:35:37;;;;;;;60.37;22.17;;;;;;;;;;4992735;28;20209;-67
2022/12/11 05:38:02;;;;;;;54.90;22.20;;;;;;;;;;4993077;28;20225;-66
2022/12/11 05:40:28;;;;;;;59.93;21.67;;;;;;;;;;4994360;28;20251;-67
2022/12/11 05:42:53;;;;;;;54.30;22.33;;;;;;;;;;5011642;28;20217;-67
2022/12/11 05:45:18;;;;;;;53.30;21.97;;;;;;;;;;5012783;28;20570;-67
2022/12/11 05:47:43;;;;;;;56.13;21.97;;;;;;;;;;5013150;28;20227;-67
2022/12/11 05:50:09;;;;;;;53.20;21.43;;;;;;;;;;5011778;28;20221;-67
2022/12/11 05:52:35;;;;;;;54.47;21.57;;;;;;;;;;5012742;28;20637;-67
2022/12/11 05:55:00;;;;;;;53.13;20.97;;;;;;;;;;5012729;28;20711;-66
2022/12/11 05:57:25;;;;;;;50.93;21.07;;;;;;;;;;5008937;28;20224;-67
2022/12/11 05:59:50;;;;;;;50.10;21.20;;;;;;;;;;5003474;28;20304;-67
2022/12/11 06:02:16;;;;;;;48.37;20.63;;;;;;;;;;5012170;28;20216;-67
2022/12/11 06:04:41;;;;;;;49.20;21.93;;;;;;;;;;4999635;28;20692;-67
2022/12/11 06:07:06;;;;;;;48.10;20.33;;;;;;;;;;4998717;28;20254;-67
2022/12/11 06:09:31;;;;;;;45.37;20.97;;;;;;;;;;4993225;28;20576;-67
2022/12/11 06:11:57;;;;;;;47.30;21.13;;;;;;;;;;4992112;28;20213;-67
2022/12/11 06:14:22;;;;;;;54.90;22.57;;;;;;;;;;4992900;28;20209;-67
2022/12/11 06:16:48;;;;;;;44.03;20.77;;;;;;;;;;4993941;28;20217;-67
2022/12/11 06:19:14;;;;;;;48.60;20.97;;;;;;;;;;4992639;28;20225;-67
2022/12/11 06:21:39;;;;;;;48.03;21.10;;;;;;;;;;4992864;28;20212;-67
2022/12/11 06:24:05;;;;;;;49.23;20.33;;;;;;;;;;4996900;28;20610;-67
2022/12/11 06:26:30;;;;;;;44.70;21.43;;;;;;;;;;4999669;28;20267;-67
2022/12/11 06:28:56;;;;;;;44.50;20.60;;;;;;;;;;4999463;28;20694;-67
2022/12/11 06:31:21;;;;;;;52.60;22.07;;;;;;;;;;4998444;28;20726;-67
2022/12/11 06:33:46;;;;;;;40.37;20.10;;;;;;;;;;4999322;28;20278;-67
2022/12/11 06:36:13;;;;;;;44.30;19.93;;;;;;;;;;4999331;28;20213;-67
2022/12/11 06:38:38;;;;;;;39.40;20.37;;;;;;;;;;4986292;28;20229;-67
2022/12/11 06:41:04;;;;;;;40.13;19.77;;;;;;;;;;4963182;28;20214;-67
2022/12/11 06:43:30;;;;;;;38.57;19.93;;;;;;;;;;4969785;28;20244;-68
2022/12/11 06:45:56;;;;;;;41.90;19.20;;;;;;;;;;4988327;28;20724;-67
2022/12/11 06:48:21;;;;;;;43.57;19.50;;;;;;;;;;4974814;28;20210;-67
2022/12/11 06:50:46;;;;;;;43.90;20.03;;;;;;;;;;4988904;28;20707;-67
2022/12/11 06:53:14;;;;;;;46.30;20.50;;;;;;;;;;4988112;28;20213;-67
2022/12/11 06:55:40;;;;;;;39.63;18.83;;;;;;;;;;4984821;28;20330;-66
2022/12/11 06:58:06;;;;;;;38.50;19.07;;;;;;;;;;4983700;28;20454;-66
2022/12/11 07:00:31;;;;;;;36.63;17.83;;;;;;;;;;4960050;28;20307;-66
2022/12/11 07:02:56;;;;;;;32.37;16.30;;;;;;;;;;4962513;28;20469;-66
2022/12/11 07:05:22;;;;;;;36.17;17.50;;;;;;;;;;4967585;28;20245;-66
2022/12/11 07:07:47;;;;;;;33.97;17.80;;;;;;;;;;4983548;28;20233;-66
2022/12/11 07:10:13;;;;;;;36.20;18.37;;;;;;;;;;4962596;28;20611;-66
2022/12/11 07:12:38;;;;;;;35.57;17.43;;;;;;;;;;4962310;28;20245;-66
2022/12/11 07:15:05;;;;;;;32.20;17.13;;;;;;;;;;4963116;28;20230;-66
2022/12/11 07:17:30;;;;;;;35.53;18.00;;;;;;;;;;4989059;28;20784;-66
2022/12/11 07:19:55;;;;;;;36.43;18.33;;;;;;;;;;4989130;28;20209;-66
2022/12/11 07:22:21;;;;;;;37.33;18.40;;;;;;;;;;4988268;28;20221;-66
2022/12/11 07:24:46;;;;;;;35.67;17.80;;;;;;;;;;4989204;28;20271;-66
2022/12/11 07:27:11;;;;;;;33.93;17.37;;;;;;;;;;4988375;28;20209;-66
2022/12/11 07:29:37;;;;;;;36.53;17.77;;;;;;;;;;5004077;28;20251;-66
2022/12/11 07:32:02;;;;;;;35.07;18.27;;;;;;;;;;4986861;28;20225;-66
2022/12/11 07:34:27;;;;;;;32.13;17.30;;;;;;;;;;4995013;28;20235;-66
2022/12/11 07:36:53;;;;;;;37.07;20.20;;;;;;;;;;4995585;28;20913;-65
2022/12/11 07:39:18;;;;;;;35.50;17.63;;;;;;;;;;4995063;28;20237;-67
2022/12/11 07:41:43;;;;;;;30.23;16.47;;;;;;;;;;4988657;28;20217;-68
2022/12/11 07:44:09;;;;;;;33.23;17.37;;;;;;;;;;5010565;28;20270;-66
2022/12/11 07:46:34;;;;;;;32.03;16.70;;;;;;;;;;5007680;28;20210;-66
2022/12/11 07:49:00;;;;;;;33.13;17.57;;;;;;;;;;5004424;28;20296;-66
2022/12/11 07:51:27;;;;;;;31.83;16.87;;;;;;;;;;5004898;28;20304;-66
2022/12/11 07:53:54;;;;;;;31.93;17.00;;;;;;;;;;5003626;28;20715;-66
2022/12/11 07:56:19;;;;;;;32.43;16.53;;;;;;;;;;5004737;28;20284;-66
2022/12/11 07:58:44;;;;;;;34.87;18.43;;;;;;;;;;5004593;28;20300;-66
2022/12/11 08:01:11;;;;;;;50.83;26.30;;;;;;;;;;4997421;28;20232;-65
2022/12/11 08:03:36;;;;;;;31.57;17.50;;;;;;;;;;4999796;28;20694;-65
2022/12/11 08:06:01;;;;;;;38.90;21.50;;;;;;;;;;5003704;28;20421;-65
2022/12/11 08:08:27;;;;;;;30.10;17.33;;;;;;;;;;5011955;28;20668;-65
2022/12/11 08:10:52;;;;;;;25.90;15.10;;;;;;;;;;5012956;28;20209;-65
2022/12/11 08:13:17;;;;;;;27.93;16.23;;;;;;;;;;5014379;28;20219;-66
2022/12/11 08:15:43;;;;;;;29.17;16.30;;;;;;;;;;5001706;28;20202;-66
2022/12/11 08:18:08;;;;;;;28.63;16.47;;;;;;;;;;4974197;28;20635;-65
2022/12/11 08:20:33;;;;;;;29.83;16.47;;;;;;;;;;4975526;28;20210;-66
2022/12/11 08:22:58;;;;;;;31.13;16.23;;;;;;;;;;4975479;28;20217;-66
2022/12/11 08:25:24;;;;;;;26.67;15.90;;;;;;;;;;4979166;28;20217;-65
2022/12/11 08:27:49;;;;;;;27.43;15.57;;;;;;;;;;4983560;28;20210;-65
2022/12/11 08:30:14;;;;;;;28.27;15.57;;;;;;;;;;4983231;28;20676;-65
2022/12/11 08:32:40;;;;;;;25.73;14.60;;;;;;;;;;4982903;28;20202;-66
2022/12/11 08:35:05;;;;;;;24.83;14.67;;;;;;;;;;4987136;28;20236;-67
2022/12/11 08:37:32;;;;;;;27.83;14.70;;;;;;;;;;4988771;28;20229;-66
2022/12/11 08:39:57;;;;;;;25.93;14.83;;;;;;;;;;4994358;28;20236;-66
2022/12/11 08:42:23;;;;;;;24.03;14.37;;;;;;;;;;4986861;28;20264;-66
2022/12/11 08:44:49;;;;;;;24.27;12.83;;;;;;;;;;4993642;28;20850;-66
2022/12/11 08:47:14;;;;;;;23.57;12.50;;;;;;;;;;4993393;28;20213;-66
2022/12/11 08:49:39;;;;;;;25.53;13.90;;;;;;;;;;5011153;28;20212;-66
2022/12/11 08:52:05;;;;;;;24.87;13.97;;;;;;;;;;5012502;28;20287;-66
2022/12/11 08:54:30;;;;;;;24.53;13.53;;;;;;;;;;5013707;28;20207;-66
2022/12/11 08:56:55;;;;;;;22.70;13.23;;;;;;;;;;5001827;28;20209;-66
2022/12/11 08:59:21;;;;;;;22.97;13.10;;;;;;;;;;4992879;28;20225;-66
2022/12/11 09:01:46;;;;;;;26.17;13.63;;;;;;;;;;4994029;28;20299;-66
2022/12/11 09:04:11;;;;;;;27.43;14.73;;;;;;;;;;4993471;28;20302;-66
2022/12/11 09:06:36;;;;;;;27.07;14.60;;;;;;;;;;4993264;28;20217;-66
2022/12/11 09:09:02;;;;;;;24.47;13.27;;;;;;;;;;4993022;28;20263;-66
2022/12/11 09:11:28;;;;;;;23.53;14.33;;;;;;;;;;4993367;28;20209;-67
2022/12/11 09:13:54;;;;;;;25.47;14.27;;;;;;;;;;4992107;28;20221;-66
2022/12/11 09:16:19;;;;;;;24.60;13.90;;;;;;;;;;4991886;28;20352;-66
2022/12/11 09:18:45;;;;;;;25.43;14.30;;;;;;;;;;4985798;28;20229;-66
2022/12/11 09:21:12;;;;;;;23.40;13.03;;;;;;;;;;4997469;28;20220;-67
2022/12/11 09:23:37;;;;;;;23.70;13.20;;;;;;;;;;5004061;28;20216;-67
2022/12/11 09:26:03;;;;;;;22.33;12.53;;;;;;;;;;5012768;28;20227;-65
2022/12/11 09:28:29;;;;;;;22.97;13.23;;;;;;;;;;5012556;28;20216;-64
2022/12/11 09:30:54;;;;;;;22.00;13.10;;;;;;;;;;5003890;28;20263;-65
2022/12/11 09:33:19;;;;;;;23.40;13.03;;;;;;;;;;5012883;28;20217;-67
2022/12/11 09:35:45;;;;;;;23.03;13.27;;;;;;;;;;5012421;28;20545;-66
2022/12/11 09:38:10;;;;;;;22.60;13.00;;;;;;;;;;5012730;28;20224;-66
2022/12/11 09:40:40;;;;;;;22.53;12.50;;;;;;;;;;5013145;28;20227;-66
2022/12/11 09:43:08;;;;;;;23.87;12.63;;;;;;;;;;4990779;28;20218;-65
2022/12/11 09:45:33;;;;;;;22.93;12.47;;;;;;;;;;4993658;28;20271;-66
2022/12/11 09:47:59;;;;;;;23.93;13.73;;;;;;;;;;4994703;28;20692;-66
2022/12/11 09:50:25;;;;;;;23.33;12.20;;;;;;;;;;4997524;28;20209;-66
2022/12/11 09:52:51;;;;;;;21.37;12.23;;;;;;;;;;4993166;28;20694;-66
2022/12/11 09:55:17;;;;;;;25.10;13.30;;;;;;;;;;4992259;28;20217;-66
2022/12/11 09:57:42;;;;;;;22.43;12.63;;;;;;;;;;4992236;28;20229;-66
2022/12/11 10:00:28;;;;;;;23.57;12.87;;;;;;;;;;5004720;28;20667;-66
2022/12/11 10:02:56;;;;;;;21.83;12.23;;;;;;;;;;5002558;28;20355;-66
2022/12/11 10:05:29;;;;;;;22.23;12.60;;;;;;;;;;5011930;28;20228;-66
2022/12/11 10:07:59;;;;;;;24.53;12.60;;;;;;;;;;5012847;28;20213;-66
2022/12/11 10:10:31;;;;;;;21.53;12.70;;;;;;;;;;4998877;28;20277;-66
2022/12/11 10:13:01;;;;;;;21.57;12.47;;;;;;;;;;5008282;28;20212;-66
2022/12/11 10:15:30;;;;;;;22.07;13.00;;;;;;;;;;4992633;28;20300;-65
2022/12/11 10:17:56;;;;;;;22.30;12.83;;;;;;;;;;4982815;28;20295;-66
2022/12/11 10:20:23;;;;;;;21.63;12.23;;;;;;;;;;4982975;28;20296;-66
2022/12/11 10:22:49;;;;;;;20.83;12.20;;;;;;;;;;4992848;28;20283;-66
2022/12/11 10:25:18;;;;;;;22.73;12.77;;;;;;;;;;4991768;28;20700;-66
2022/12/11 10:27:44;;;;;;;22.20;12.43;;;;;;;;;;4992764;28;20288;-66
2022/12/11 10:30:13;;;;;;;20.90;12.03;;;;;;;;;;4991742;28;20307;-66
2022/12/11 10:32:42;;;;;;;20.87;12.03;;;;;;;;;;4985455;28;20217;-66
2022/12/11 10:35:09;;;;;;;22.00;12.53;;;;;;;;;;4960029;28;20423;-65
2022/12/11 10:37:34;;;;;;;21.70;12.40;;;;;;;;;;4982748;28;20225;-66
2022/12/11 10:39:59;;;;;;;22.40;11.90;;;;;;;;;;4962855;28;20272;-66
2022/12/11 10:42:25;;;;;;;21.23;12.53;;;;;;;;;;4973549;28;20811;-65
2022/12/11 10:44:56;;;;;;;21.53;12.63;;;;;;;;;;4975290;28;20222;-66
2022/12/11 10:47:21;;;;;;;20.27;11.97;;;;;;;;;;4985638;28;20225;-66
2022/12/11 10:49:52;;;;;;;24.53;13.27;;;;;;;;;;4977292;28;20235;-65
2022/12/11 10:52:19;;;;;;;21.90;12.57;;;;;;;;;;4985171;28;20273;-66
2022/12/11 10:54:45;;;;;;;22.13;13.30;;;;;;;;;;4982681;28;20228;-66
2022/12/11 10:57:11;;;;;;;23.67;13.23;;;;;;;;;;4976661;28;20217;-65
2022/12/11 10:59:38;;;;;;;22.87;13.70;;;;;;;;;;4970301;28;20225;-66
2022/12/11 11:02:04;;;;;;;24.60;13.63;;;;;;;;;;4975967;28;20206;-65
2022/12/11 11:04:30;;;;;;;22.20;13.10;;;;;;;;;;4967061;28;20221;-65
2022/12/11 11:07:01;;;;;;;22.77;12.47;;;;;;;;;;4978625;28;20222;-65
2022/12/11 11:09:30;;;;;;;22.20;13.00;;;;;;;;;;4995120;28;20283;-65
2022/12/11 11:11:56;;;;;;;22.43;12.10;;;;;;;;;;4980025;28;20304;-65
2022/12/11 11:14:22;;;;;;;20.93;12.63;;;;;;;;;;4988586;28;20245;-65
2022/12/11 11:16:48;;;;;;;20.83;12.90;;;;;;;;;;4979274;28;20945;-66
2022/12/11 11:19:16;;;;;;;21.77;13.20;;;;;;;;;;4968271;28;20230;-66
2022/12/11 11:21:45;;;;;;;21.97;13.10;;;;;;;;;;4981690;28;20680;-66
2022/12/11 11:24:17;;;;;;;22.33;13.23;;;;;;;;;;4981363;28;20708;-65
2022/12/11 11:26:42;;;;;;;32.20;18.33;;;;;;;;;;4983464;28;20301;-65
2022/12/11 11:29:15;;;;;;;31.10;17.13;;;;;;;;;;4987298;28;20316;-65
2022/12/11 11:31:41;;;;;;;23.47;13.63;;;;;;;;;;4985301;28;20206;-66
2022/12/11 11:34:06;;;;;;;23.57;14.70;;;;;;;;;;4986901;28;20556;-65
2022/12/11 11:36:37;;;;;;;22.10;13.73;;;;;;;;;;4989335;28;20287;-66
2022/12/11 11:39:02;;;;;;;24.37;15.07;;;;;;;;;;4988749;28;20229;-65
2022/12/11 11:41:28;;;;;;;25.30;15.93;;;;;;;;;;4973955;28;20225;-66
2022/12/11 11:43:54;;;;;;;25.37;15.77;;;;;;;;;;4963456;28;20244;-66
2022/12/11 11:46:24;;;;;;;26.63;15.97;;;;;;;;;;4980746;28;20217;-66
2022/12/11 11:48:54;;;;;;;26.73;15.73;;;;;;;;;;4985024;28;20213;-66
2022/12/11 11:51:23;;;;;;;24.67;15.33;;;;;;;;;;4988422;28;20217;-66
2022/12/11 11:53:49;;;;;;;26.90;16.63;;;;;;;;;;4989069;28;20248;-66
2022/12/11 11:56:25;;;;;;;26.63;16.43;;;;;;;;;;4982215;28;20665;-65
2022/12/11 11:58:55;;;;;;;27.97;16.17;;;;;;;;;;4987189;28;20695;-66
2022/12/11 12:01:20;;;;;;;23.07;14.83;;;;;;;;;;4986968;28;20209;-66
2022/12/11 12:03:45;;;;;;;26.07;16.03;;;;;;;;;;4965326;28;20268;-66
2022/12/11 12:06:21;;;;;;;26.33;16.07;;;;;;;;;;4978993;28;20228;-66
2022/12/11 12:08:48;;;;;;;25.27;15.83;;;;;;;;;;4979963;28;20213;-66
2022/12/11 12:11:27;;;;;;;25.97;15.20;;;;;;;;;;4975520;28;20213;-65
2022/12/11 12:13:53;;;;;;;26.93;15.90;;;;;;;;;;4986996;28;20299;-66
2022/12/11 12:16:39;;;;;;;26.37;16.47;;;;;;;;;;4976115;28;20593;-65
2022/12/11 12:19:05;;;;;;;24.83;15.90;;;;;;;;;;4972244;28;20272;-65
2022/12/11 12:21:34;;;;;;;24.20;14.47;;;;;;;;;;4985378;28;20542;-66
2022/12/11 12:24:03;;;;;;;24.20;14.10;;;;;;;;;;4992960;28;20321;-66
2022/12/11 12:26:29;;;;;;;24.17;14.90;;;;;;;;;;5006328;28;20216;-66
2022/12/11 12:28:57;;;;;;;24.87;14.07;;;;;;;;;;4997652;28;20584;-65
2022/12/11 12:31:28;;;;;;;25.67;14.07;;;;;;;;;;4993233;28;20279;-66
2022/12/11 12:34:08;;;;;;;23.13;12.97;;;;;;;;;;4993261;28;20344;-66
2022/12/11 12:36:39;;;;;;;22.53;13.03;;;;;;;;;;4999568;28;20747;-65
2022/12/11 12:39:09;;;;;;;25.17;14.50;;;;;;;;;;4992641;28;20229;-65
2022/12/11 12:41:41;;;;;;;24.40;14.07;;;;;;;;;;4993204;28;20660;-65
2022/12/11 12:44:11;;;;;;;23.43;13.23;;;;;;;;;;4992020;28;20259;-65
2022/12/11 12:46:37;;;;;;;23.67;13.40;;;;;;;;;;4994150;28;20583;-66
2022/12/11 12:49:02;;;;;;;23.37;13.60;;;;;;;;;;4994516;28;20225;-65
2022/12/11 12:51:27;;;;;;;22.50;13.33;;;;;;;;;;4992509;28;20205;-66
2022/12/11 12:53:54;;;;;;;25.53;14.57;;;;;;;;;;4994514;28;20224;-66
2022/12/11 12:56:20;;;;;;;25.70;14.93;;;;;;;;;;4985415;28;20213;-66
2022/12/11 12:58:45;;;;;;;23.63;14.40;;;;;;;;;;4973836;28;20229;-66
2022/12/11 13:01:10;;;;;;;65.03;34.43;;;;;;;;;;4986891;28;20205;-66
2022/12/11 13:03:36;;;;;;;26.00;15.63;;;;;;;;;;4993888;28;20224;-66
2022/12/11 13:06:03;;;;;;;25.20;14.63;;;;;;;;;;4992952;28;20241;-66
2022/12/11 13:08:29;;;;;;;30.20;15.63;;;;;;;;;;4991560;28;20208;-66
2022/12/11 13:11:02;;;;;;;28.10;15.93;;;;;;;;;;4994001;28;20213;-66
2022/12/11 13:13:39;;;;;;;27.77;15.03;;;;;;;;;;4993315;28;20228;-66
2022/12/11 13:16:05;;;;;;;27.47;14.43;;;;;;;;;;4991609;28;20212;-66
2022/12/11 13:18:33;;;;;;;22.47;13.30;;;;;;;;;;4993611;28;20221;-66
2022/12/11 13:20:58;;;;;;;25.07;15.10;;;;;;;;;;4983164;28;20217;-66
2022/12/11 13:23:26;;;;;;;24.00;13.70;;;;;;;;;;4978978;28;20225;-66
2022/12/11 13:25:53;;;;;;;27.47;14.97;;;;;;;;;;4972443;28;20308;-66
2022/12/11 13:28:20;;;;;;;24.83;14.40;;;;;;;;;;4990647;28;20205;-66
2022/12/11 13:30:55;;;;;;;24.87;13.97;;;;;;;;;;4989986;28;20623;-66
2022/12/11 13:33:21;;;;;;;22.83;12.77;;;;;;;;;;4972085;28;21177;-65
2022/12/11 13:35:47;;;;;;;27.13;14.30;;;;;;;;;;4974438;28;20206;-66
2022/12/11 13:38:15;;;;;;;23.23;13.00;;;;;;;;;;4973943;28;20236;-65
2022/12/11 13:40:40;;;;;;;26.90;14.20;;;;;;;;;;4973400;28;20220;-65
2022/12/11 13:43:07;;;;;;;22.63;12.67;;;;;;;;;;4972577;28;20217;-65
2022/12/11 13:45:41;;;;;;;22.47;12.63;;;;;;;;;;4999888;28;20219;-65
2022/12/11 13:48:12;;;;;;;21.93;12.50;;;;;;;;;;5011478;28;20304;-65
2022/12/11 13:50:37;;;;;;;25.10;13.33;;;;;;;;;;5003332;28;20553;-65
2022/12/11 13:53:03;;;;;;;20.90;12.97;;;;;;;;;;4984409;28;20232;-65
2022/12/11 13:55:29;;;;;;;21.93;12.63;;;;;;;;;;4999891;28;20683;-66
2022/12/11 13:57:55;;;;;;;25.07;14.27;;;;;;;;;;4973954;28;20222;-65
2022/12/11 14:00:21;;;;;;;24.77;13.97;;;;;;;;;;4980895;28;20236;-65
2022/12/11 14:02:47;;;;;;;26.00;14.50;;;;;;;;;;4973699;28;20230;-65
2022/12/11 14:05:12;;;;;;;26.33;13.77;;;;;;;;;;4979095;28;20406;-66
2022/12/11 14:07:39;;;;;;;27.80;15.50;;;;;;;;;;4975457;28;20348;-65
2022/12/11 14:10:08;;;;;;;24.93;14.70;;;;;;;;;;4973129;28;20246;-64
2022/12/11 14:12:33;;;;;;;27.67;15.00;;;;;;;;;;4973865;28;20284;-64
2022/12/11 14:14:58;;;;;;;26.17;14.77;;;;;;;;;;4973294;28;20683;-65
2022/12/11 14:17:26;;;;;;;24.70;13.50;;;;;;;;;;4972348;28;20638;-64
2022/12/11 14:19:52;;;;;;;21.60;13.03;;;;;;;;;;4972402;28;20233;-64
2022/12/11 14:22:18;;;;;;;25.57;14.87;;;;;;;;;;4984729;28;20703;-64